Time;durP1;ratioP1;P1;durP2;ratioP2;P2;SDS_P1;SDS_P2;PMS_P1;PMS_P2;Temp;Humidity;BMP_temperature;BMP_pressure;BME280_temperature;BME280_humidity;BME280_pressure;Samples;Min_cycle;Max_cycle;Signal;HPM_P1;HPM_P2
2022/08/10 00:00:21;;;;;;;2.20;2.00;;;22.00;69.60;;;;;;5035734;28;20187;-70
2022/08/10 00:02:58;;;;;;;2.30;2.10;;;22.00;70.20;;;;;;5035939;28;20251;-71
2022/08/10 00:05:24;;;;;;;2.20;1.80;;;21.90;70.50;;;;;;5036066;28;20478;-70
2022/08/10 00:07:50;;;;;;;3.33;2.33;;;21.90;70.80;;;;;;5035941;28;20895;-70
2022/08/10 00:10:18;;;;;;;3.27;2.07;;;21.80;71.20;;;;;;5035431;28;20525;-69
2022/08/10 00:12:44;;;;;;;3.90;2.37;;;21.80;71.90;;;;;;5035032;28;20167;-70
2022/08/10 00:15:12;;;;;;;4.03;2.27;;;21.90;72.00;;;;;;5035750;28;20482;-70
2022/08/10 00:17:38;;;;;;;2.83;2.30;;;21.90;72.00;;;;;;5035788;28;20178;-70
2022/08/10 00:20:04;;;;;;;3.10;2.13;;;22.00;72.20;;;;;;5035314;28;20915;-70
2022/08/10 00:22:30;;;;;;;2.60;2.40;;;21.90;72.50;;;;;;5035314;28;20406;-70
2022/08/10 00:24:56;;;;;;;3.00;2.17;;;21.90;72.90;;;;;;5035194;28;20820;-70
2022/08/10 00:27:26;;;;;;;3.43;2.47;;;21.80;73.30;;;;;;5034922;28;20254;-70
2022/08/10 00:29:51;;;;;;;2.40;1.87;;;21.90;73.50;;;;;;5034806;28;20462;-70
2022/08/10 00:32:17;;;;;;;3.57;2.97;;;21.90;73.60;;;;;;5035034;28;20489;-69
2022/08/10 00:34:44;;;;;;;2.50;2.30;;;21.80;73.80;;;;;;5034884;28;20222;-70
2022/08/10 00:37:10;;;;;;;5.80;2.67;;;21.80;74.30;;;;;;5034873;28;20213;-70
2022/08/10 00:39:36;;;;;;;2.90;2.67;;;21.60;74.60;;;;;;5035009;28;20430;-70
2022/08/10 00:42:03;;;;;;;2.40;2.20;;;21.50;75.30;;;;;;5034386;28;20899;-70
2022/08/10 00:44:29;;;;;;;2.50;2.30;;;21.40;75.90;;;;;;5035180;28;20648;-70
2022/08/10 00:46:55;;;;;;;1.97;1.87;;;21.30;76.30;;;;;;5033660;28;20465;-70
2022/08/10 00:49:20;;;;;;;3.43;2.50;;;21.30;76.70;;;;;;5034874;28;20195;-70
2022/08/10 00:51:46;;;;;;;3.10;2.33;;;21.40;77.00;;;;;;5034850;28;20175;-70
2022/08/10 00:54:12;;;;;;;2.63;2.10;;;21.40;77.30;;;;;;5034682;28;20253;-70
2022/08/10 00:56:37;;;;;;;2.77;2.37;;;21.40;77.70;;;;;;5033439;28;20183;-70
2022/08/10 00:59:03;;;;;;;2.20;2.00;;;21.20;78.40;;;;;;5034575;28;20262;-70
2022/08/10 01:01:28;;;;;;;2.10;2.00;;;21.10;79.00;;;;;;5034438;28;20163;-70
2022/08/10 01:03:54;;;;;;;5.07;2.37;;;21.00;79.60;;;;;;5034324;28;20175;-70
2022/08/10 01:06:57;;;;;;;2.53;2.33;;;21.00;80.30;;;;;;5034655;28;20180;-70
2022/08/10 01:09:39;;;;;;;2.53;2.20;;;20.90;80.70;;;;;;5034921;28;20213;-70
2022/08/10 01:12:15;;;;;;;2.17;1.97;;;20.80;81.60;;;;;;5032951;28;20429;-70
2022/08/10 01:14:54;;;;;;;2.37;2.17;;;20.70;82.50;;;;;;5034276;28;20442;-70
2022/08/10 01:17:27;;;;;;;2.90;2.33;;;20.80;83.40;;;;;;5033870;28;20761;-70
2022/08/10 01:20:24;;;;;;;2.80;2.40;;;20.70;83.60;;;;;;5034393;28;20567;-70
2022/08/10 01:23:16;;;;;;;2.53;2.27;;;20.70;83.70;;;;;;5034491;28;20418;-70
2022/08/10 01:26:19;;;;;;;3.23;2.83;;;20.80;84.30;;;;;;5034171;28;20436;-70
2022/08/10 01:29:06;;;;;;;3.00;2.70;;;20.80;84.40;;;;;;5033889;28;20434;-70
2022/08/10 01:31:37;;;;;;;3.07;2.80;;;20.80;85.00;;;;;;5034246;28;20399;-69
2022/08/10 01:34:10;;;;;;;3.10;2.53;;;20.70;85.70;;;;;;5034034;28;20445;-70
2022/08/10 01:36:44;;;;;;;4.63;2.47;;;20.50;86.60;;;;;;5034202;28;20386;-69
2022/08/10 01:39:18;;;;;;;3.43;2.50;;;20.50;87.20;;;;;;5034106;28;20425;-70
2022/08/10 01:41:46;;;;;;;2.33;2.17;;;20.60;87.60;;;;;;5033713;28;20418;-70
2022/08/10 01:44:15;;;;;;;3.20;2.40;;;20.50;88.20;;;;;;5033625;28;20456;-70
2022/08/10 01:46:47;;;;;;;3.43;2.83;;;20.30;89.40;;;;;;5033830;28;20418;-70
2022/08/10 01:49:15;;;;;;;3.47;3.03;;;20.30;90.10;;;;;;5034104;28;20434;-70
2022/08/10 01:51:54;;;;;;;2.50;2.13;;;20.30;90.40;;;;;;5034159;28;20406;-70
2022/08/10 01:54:23;;;;;;;2.90;2.70;;;20.20;90.80;;;;;;5034089;28;20446;-69
2022/08/10 01:56:54;;;;;;;2.80;2.60;;;20.20;91.00;;;;;;5032643;28;20434;-70
2022/08/10 01:59:37;;;;;;;2.53;2.33;;;20.10;91.40;;;;;;5033006;28;20430;-70
2022/08/10 02:02:08;;;;;;;3.40;2.70;;;20.10;91.70;;;;;;5034513;28;20410;-70
2022/08/10 02:04:36;;;;;;;2.90;2.60;;;20.10;92.10;;;;;;5033799;28;20906;-70
2022/08/10 02:07:02;;;;;;;2.70;2.50;;;20.10;92.40;;;;;;5033574;28;20414;-70
2022/08/10 02:09:39;;;;;;;3.13;2.67;;;20.10;92.60;;;;;;5033617;28;20426;-70
2022/08/10 02:12:11;;;;;;;2.70;2.50;;;20.10;92.80;;;;;;5031664;28;20508;-70
2022/08/10 02:14:49;;;;;;;2.93;2.63;;;20.10;92.90;;;;;;5023787;28;20457;-70
2022/08/10 02:17:29;;;;;;;2.70;2.50;;;20.10;93.00;;;;;;5032938;28;20903;-70
2022/08/10 02:19:57;;;;;;;4.97;2.60;;;20.10;93.40;;;;;;5032118;28;20441;-70
2022/08/10 02:22:24;;;;;;;3.07;2.53;;;20.00;93.70;;;;;;5015642;28;20414;-70
2022/08/10 02:24:51;;;;;;;2.90;2.70;;;20.00;94.00;;;;;;5033735;28;20463;-70
2022/08/10 02:27:21;;;;;;;3.00;2.73;;;20.00;94.20;;;;;;5033759;28;20432;-70
2022/08/10 02:29:48;;;;;;;3.80;2.50;;;19.90;94.50;;;;;;5033373;28;20460;-70
2022/08/10 02:32:16;;;;;;;3.40;2.30;;;20.00;94.70;;;;;;5032186;28;20520;-70
2022/08/10 02:34:42;;;;;;;7.10;2.77;;;20.00;94.90;;;;;;5015837;28;20595;-70
2022/08/10 02:37:09;;;;;;;3.00;2.70;;;20.00;95.00;;;;;;5033419;28;20406;-70
2022/08/10 02:39:35;;;;;;;2.53;2.33;;;20.00;95.10;;;;;;5033581;28;20437;-70
2022/08/10 02:42:19;;;;;;;4.10;2.87;;;20.00;95.30;;;;;;5033579;28;20417;-70
2022/08/10 02:45:10;;;;;;;2.73;2.53;;;20.00;95.50;;;;;;5034047;28;20401;-70
2022/08/10 02:47:44;;;;;;;2.70;2.50;;;20.00;95.70;;;;;;5033223;28;20453;-70
2022/08/10 02:50:32;;;;;;;3.10;2.80;;;20.00;95.80;;;;;;5034151;28;20432;-70
2022/08/10 02:53:05;;;;;;;3.00;2.80;;;19.90;96.20;;;;;;5033651;28;20494;-70
2022/08/10 02:55:41;;;;;;;2.90;2.53;;;19.80;96.50;;;;;;5033385;28;20406;-70
2022/08/10 02:58:12;;;;;;;2.40;2.20;;;19.80;96.90;;;;;;5032351;28;20764;-70
2022/08/10 03:00:52;;;;;;;2.83;2.53;;;19.80;97.00;;;;;;5033063;28;20463;-70
2022/08/10 03:03:24;;;;;;;3.40;2.60;;;19.90;96.90;;;;;;5033344;28;20390;-69
2022/08/10 03:05:55;;;;;;;2.63;2.40;;;19.90;97.20;;;;;;5033005;28;20417;-70
2022/08/10 03:08:24;;;;;;;2.77;2.57;;;19.80;97.30;;;;;;5033776;28;20429;-70
2022/08/10 03:10:52;;;;;;;2.80;2.60;;;19.70;97.50;;;;;;5033274;28;20950;-70
2022/08/10 03:13:19;;;;;;;3.10;2.90;;;19.60;97.70;;;;;;5032961;28;20475;-69
2022/08/10 03:15:46;;;;;;;3.03;2.70;;;19.60;98.00;;;;;;5032821;28;20406;-70
2022/08/10 03:18:13;;;;;;;4.00;2.97;;;19.60;98.10;;;;;;5032835;28;20778;-70
2022/08/10 03:20:41;;;;;;;3.30;2.57;;;19.60;98.40;;;;;;5031316;28;20477;-70
2022/08/10 03:23:19;;;;;;;3.07;2.63;;;19.50;98.50;;;;;;5032641;28;20398;-70
2022/08/10 03:25:48;;;;;;;3.17;2.90;;;19.50;98.60;;;;;;5032987;28;20401;-67
2022/08/10 03:28:15;;;;;;;3.33;3.03;;;19.50;98.90;;;;;;5034854;28;20441;-69
2022/08/10 03:30:42;;;;;;;3.03;2.80;;;19.40;99.00;;;;;;5036154;28;20485;-70
2022/08/10 03:33:10;;;;;;;5.10;3.37;;;19.40;99.10;;;;;;5036725;28;20508;-69
2022/08/10 03:35:36;;;;;;;13.47;12.37;;;19.40;99.30;;;;;;5035778;28;20468;-70
2022/08/10 03:38:02;;;;;;;3.10;2.80;;;19.40;99.20;;;;;;5036509;28;20409;-70
2022/08/10 03:40:31;;;;;;;5.37;3.20;;;19.40;99.30;;;;;;5036552;28;20201;-69
2022/08/10 03:42:57;;;;;;;4.90;2.83;;;19.50;99.30;;;;;;5036367;28;20413;-70
2022/08/10 03:45:24;;;;;;;3.63;3.20;;;19.40;99.40;;;;;;5036169;28;20413;-70
2022/08/10 03:47:50;;;;;;;2.90;2.70;;;19.30;99.60;;;;;;5035948;28;20394;-69
2022/08/10 03:50:16;;;;;;;3.27;2.97;;;19.20;99.90;;;;;;5035599;28;20446;-69
2022/08/10 03:52:42;;;;;;;3.00;2.80;;;19.10;99.90;;;;;;5035680;28;20409;-70
2022/08/10 03:55:09;;;;;;;3.60;2.80;;;19.10;99.90;;;;;;5036158;28;20540;-70
2022/08/10 03:57:35;;;;;;;3.33;3.13;;;19.00;99.90;;;;;;5035925;28;20771;-68
2022/08/10 04:00:01;;;;;;;3.00;2.80;;;19.10;99.90;;;;;;5034264;28;20525;-69
2022/08/10 04:02:27;;;;;;;3.20;2.80;;;19.10;99.90;;;;;;5035693;28;20654;-69
2022/08/10 04:04:53;;;;;;;4.53;3.07;;;19.20;99.90;;;;;;5017937;28;20266;-69
2022/08/10 04:07:20;;;;;;;3.20;3.00;;;19.10;99.90;;;;;;5035783;28;20489;-69
2022/08/10 04:09:46;;;;;;;3.17;2.90;;;19.00;99.90;;;;;;5017797;28;20680;-69
2022/08/10 04:12:11;;;;;;;3.80;3.30;;;18.90;99.90;;;;;;5035480;28;20437;-68
2022/08/10 04:14:37;;;;;;;5.53;3.60;;;18.90;99.90;;;;;;5035205;28;20199;-69
2022/08/10 04:17:02;;;;;;;5.10;4.00;;;18.80;99.90;;;;;;5035726;28;20249;-70
2022/08/10 04:19:32;;;;;;;5.10;4.60;;;18.80;99.90;;;;;;5035614;28;20245;-69
2022/08/10 04:22:15;;;;;;;6.97;5.40;;;18.80;99.90;;;;;;5035550;28;20198;-69
2022/08/10 04:24:42;;;;;;;6.93;5.80;;;18.90;99.90;;;;;;5035751;28;20394;-69
2022/08/10 04:27:08;;;;;;;7.17;6.47;;;18.80;99.90;;;;;;5035573;28;20421;-69
2022/08/10 04:29:34;;;;;;;9.50;6.43;;;18.90;99.90;;;;;;5033587;28;20497;-70
2022/08/10 04:32:02;;;;;;;8.93;7.97;;;18.90;99.90;;;;;;5035113;28;20452;-70
2022/08/10 04:34:32;;;;;;;10.60;8.87;;;18.90;99.90;;;;;;5035062;28;20196;-70
2022/08/10 04:37:02;;;;;;;10.80;9.10;;;18.90;99.90;;;;;;5034692;28;20390;-70
2022/08/10 04:39:29;;;;;;;13.23;10.33;;;18.90;99.90;;;;;;5033718;28;20445;-69
2022/08/10 04:41:55;;;;;;;14.90;11.33;;;18.90;99.90;;;;;;5034738;28;20410;-70
2022/08/10 04:44:21;;;;;;;13.90;11.00;;;19.00;99.90;;;;;;5035122;28;20435;-70
2022/08/10 04:46:46;;;;;;;12.43;11.23;;;19.10;99.90;;;;;;5034914;28;20414;-70
2022/08/10 04:49:12;;;;;;;12.30;10.50;;;19.10;99.90;;;;;;5034769;28;20664;-69
2022/08/10 04:51:37;;;;;;;16.03;12.97;;;19.10;99.90;;;;;;5017103;28;20182;-69
2022/08/10 04:54:03;;;;;;;14.27;11.03;;;19.00;99.90;;;;;;5016885;28;20256;-69
2022/08/10 04:56:29;;;;;;;14.70;10.70;;;18.80;99.90;;;;;;5034524;28;20182;-70
2022/08/10 04:58:55;;;;;;;13.03;11.13;;;18.90;99.90;;;;;;5033579;28;20175;-70
2022/08/10 05:01:21;;;;;;;10.67;9.47;;;18.90;99.90;;;;;;5016954;28;20310;-69
2022/08/10 05:03:46;;;;;;;11.90;10.70;;;18.90;99.90;;;;;;5035195;28;20871;-70
2022/08/10 05:06:12;;;;;;;12.80;8.73;;;18.90;99.90;;;;;;5061495;23;20627;-67
2022/08/10 05:08:38;;;;;;;10.87;8.50;;;19.00;99.90;;;;;;5040497;28;20183;-67
2022/08/10 05:11:03;;;;;;;11.47;7.10;;;19.10;99.90;;;;;;5034654;28;20552;-69
2022/08/10 05:13:29;;;;;;;7.60;6.77;;;19.10;99.90;;;;;;5053059;28;20206;-67
2022/08/10 05:15:55;;;;;;;6.87;6.17;;;19.20;99.90;;;;;;5053683;28;20265;-67
2022/08/10 05:18:21;;;;;;;6.47;5.87;;;19.20;99.90;;;;;;5054141;28;20190;-66
2022/08/10 05:20:47;;;;;;;7.17;6.47;;;19.20;99.90;;;;;;5054013;28;20929;-68
2022/08/10 05:23:12;;;;;;;6.63;5.80;;;19.20;99.90;;;;;;5054145;28;20167;-67
2022/08/10 05:25:38;;;;;;;6.37;5.77;;;19.30;99.90;;;;;;5054040;28;20166;-67
2022/08/10 05:28:04;;;;;;;5.17;4.67;;;19.40;99.90;;;;;;5053899;28;20635;-67
2022/08/10 05:30:30;;;;;;;5.27;4.23;;;19.50;99.90;;;;;;5053240;28;20212;-68
2022/08/10 05:32:56;;;;;;;6.20;4.27;;;19.50;99.90;;;;;;5053388;28;20409;-68
2022/08/10 05:35:22;;;;;;;5.03;4.13;;;19.60;99.90;;;;;;5052660;28;20265;-68
2022/08/10 05:37:50;;;;;;;5.20;4.20;;;19.70;99.90;;;;;;5053492;28;20444;-68
2022/08/10 05:40:16;;;;;;;4.80;3.83;;;19.80;99.90;;;;;;5053114;28;20873;-67
2022/08/10 05:42:42;;;;;;;6.70;4.50;;;19.80;99.90;;;;;;5053181;28;20394;-67
2022/08/10 05:45:28;;;;;;;5.10;4.70;;;19.90;99.90;;;;;;5053495;28;20760;-68
2022/08/10 05:47:54;;;;;;;5.10;4.47;;;20.00;99.90;;;;;;5053190;28;20890;-68
2022/08/10 05:50:23;;;;;;;4.97;4.53;;;20.00;99.90;;;;;;5035532;28;20619;-68
2022/08/10 05:52:49;;;;;;;5.20;4.70;;;20.10;99.90;;;;;;5053389;28;20178;-67
2022/08/10 05:55:15;;;;;;;5.70;4.27;;;20.20;99.90;;;;;;5052633;28;20405;-67
2022/08/10 05:57:41;;;;;;;3.70;3.40;;;20.20;99.90;;;;;;5053036;28;20722;-67
2022/08/10 06:00:10;;;;;;;4.43;3.80;;;20.30;99.90;;;;;;5053494;28;20401;-67
2022/08/10 06:02:39;;;;;;;4.23;3.83;;;20.40;99.90;;;;;;5053188;28;20413;-69
2022/08/10 06:05:08;;;;;;;3.93;3.40;;;20.50;99.90;;;;;;5053233;28;20401;-67
2022/08/10 06:07:38;;;;;;;7.50;3.87;;;20.70;99.90;;;;;;5053018;28;20521;-68
2022/08/10 06:10:05;;;;;;;4.37;3.83;;;20.90;99.30;;;;;;5053086;28;20435;-68
2022/08/10 06:12:33;;;;;;;4.13;3.73;;;21.00;99.50;;;;;;5052350;28;20401;-68
2022/08/10 06:14:59;;;;;;;3.67;3.33;;;21.10;99.20;;;;;;5053311;28;20448;-67
2022/08/10 06:17:28;;;;;;;3.90;3.53;;;21.30;98.90;;;;;;5053079;28;20805;-67
2022/08/10 06:19:55;;;;;;;3.63;3.30;;;21.40;98.00;;;;;;5053052;28;20429;-67
2022/08/10 06:22:22;;;;;;;4.23;3.43;;;21.50;98.20;;;;;;5053218;28;20451;-68
2022/08/10 06:24:48;;;;;;;3.50;3.10;;;21.60;97.90;;;;;;5052957;28;20409;-67
2022/08/10 06:27:13;;;;;;;3.83;2.90;;;21.70;96.90;;;;;;5052631;28;20490;-67
2022/08/10 06:29:42;;;;;;;3.27;2.97;;;21.80;96.80;;;;;;5053382;28;20782;-68
2022/08/10 06:32:10;;;;;;;3.30;2.83;;;22.00;96.80;;;;;;5052198;28;20174;-68
2022/08/10 06:34:44;;;;;;;3.37;3.07;;;22.20;95.70;;;;;;5052752;28;20443;-67
2022/08/10 06:37:14;;;;;;;3.27;2.97;;;22.40;96.00;;;;;;5053016;28;20795;-68
2022/08/10 06:39:40;;;;;;;5.57;3.10;;;22.50;96.10;;;;;;5052933;28;20842;-68
2022/08/10 06:42:11;;;;;;;4.87;3.50;;;22.60;96.20;;;;;;5053032;28;20401;-68
2022/08/10 06:44:45;;;;;;;3.17;2.60;;;22.50;94.20;;;;;;5052731;28;20166;-67
2022/08/10 06:47:13;;;;;;;3.90;3.10;;;22.50;93.00;;;;;;5052808;28;20997;-68
2022/08/10 06:49:38;;;;;;;3.17;2.83;;;22.70;94.00;;;;;;5053620;28;20504;-68
2022/08/10 06:52:06;;;;;;;4.77;3.13;;;22.90;94.30;;;;;;5052907;28;20489;-67
2022/08/10 06:54:33;;;;;;;4.00;3.07;;;23.00;94.20;;;;;;5052651;28;20561;-68
2022/08/10 06:57:00;;;;;;;9.37;3.63;;;22.70;91.90;;;;;;5052935;28;20436;-68
2022/08/10 06:59:43;;;;;;;5.70;3.03;;;22.60;92.10;;;;;;5051536;28;20457;-67
2022/08/10 07:02:13;;;;;;;8.43;3.20;;;22.60;91.90;;;;;;5053399;28;20389;-68
2022/08/10 07:04:41;;;;;;;4.60;2.90;;;22.80;91.60;;;;;;5056562;28;20392;-67
2022/08/10 07:07:13;;;;;;;3.80;3.10;;;22.90;91.10;;;;;;5055873;28;20459;-68
2022/08/10 07:09:39;;;;;;;4.10;2.20;;;23.00;91.30;;;;;;5057162;28;20393;-67
2022/08/10 07:12:07;;;;;;;2.93;2.63;;;23.00;90.80;;;;;;5056618;28;20404;-68
2022/08/10 07:14:37;;;;;;;2.20;2.00;;;23.00;90.20;;;;;;5056353;28;20494;-68
2022/08/10 07:17:04;;;;;;;2.40;2.20;;;23.00;90.40;;;;;;5056451;28;20941;-68
2022/08/10 07:19:31;;;;;;;3.28;2.30;;;23.00;90.20;;;;;;5056440;28;20408;-67
2022/08/10 07:21:58;;;;;;;2.97;2.67;;;23.40;90.10;;;;;;5055942;28;20170;-68
2022/08/10 07:24:24;;;;;;;2.30;2.10;;;23.30;89.10;;;;;;5056146;28;20408;-67
2022/08/10 07:26:53;;;;;;;4.20;2.60;;;23.40;89.00;;;;;;5055003;28;20433;-68
2022/08/10 07:29:25;;;;;;;2.90;2.40;;;23.20;88.40;;;;;;5056240;28;20413;-68
2022/08/10 07:31:51;;;;;;;4.37;2.70;;;23.30;88.60;;;;;;5055769;28;20401;-68
2022/08/10 07:34:20;;;;;;;4.67;2.47;;;23.30;88.40;;;;;;5055433;28;20432;-69
2022/08/10 07:36:48;;;;;;;2.60;2.33;;;23.20;88.60;;;;;;5055766;28;20417;-69
2022/08/10 07:39:15;;;;;;;4.80;2.70;;;23.30;88.00;;;;;;5054943;28;20843;-68
2022/08/10 07:41:43;;;;;;;2.90;2.37;;;23.40;87.70;;;;;;5055444;28;20412;-68
2022/08/10 07:44:11;;;;;;;2.40;2.20;;;23.60;87.40;;;;;;5056151;28;20417;-67
2022/08/10 07:46:43;;;;;;;4.90;2.70;;;23.70;86.50;;;;;;5055780;28;20425;-67
2022/08/10 07:49:15;;;;;;;2.83;2.53;;;23.70;86.40;;;;;;5055688;28;20373;-67
2022/08/10 07:51:42;;;;;;;3.10;2.80;;;23.60;86.30;;;;;;5055203;28;20420;-67
2022/08/10 07:54:14;;;;;;;2.43;2.23;;;23.80;86.10;;;;;;5055573;28;20441;-66
2022/08/10 07:56:44;;;;;;;5.30;2.50;;;23.80;85.60;;;;;;5054767;28;20445;-66
2022/08/10 07:59:14;;;;;;;5.47;2.00;;;24.00;86.10;;;;;;5049127;28;20786;-68
2022/08/10 08:01:45;;;;;;;2.70;2.50;;;24.10;85.80;;;;;;5051429;28;20409;-68
2022/08/10 08:04:13;;;;;;;2.97;2.33;;;24.00;84.80;;;;;;5055446;28;20393;-68
2022/08/10 08:06:41;;;;;;;3.50;2.53;;;24.00;84.50;;;;;;5054903;28;20464;-67
2022/08/10 08:09:09;;;;;;;2.20;2.00;;;24.20;83.30;;;;;;5055557;28;20467;-69
2022/08/10 08:11:36;;;;;;;3.87;2.33;;;24.20;84.00;;;;;;5054683;28;20898;-68
2022/08/10 08:14:04;;;;;;;2.80;2.40;;;24.10;84.10;;;;;;5053676;28;20440;-69
2022/08/10 08:16:31;;;;;;;2.07;1.87;;;24.30;83.20;;;;;;5035371;28;20436;-68
2022/08/10 08:18:59;;;;;;;2.90;2.23;;;24.30;82.80;;;;;;5035048;28;20394;-69
2022/08/10 08:21:27;;;;;;;3.27;2.50;;;24.40;82.80;;;;;;5035311;28;20402;-67
2022/08/10 08:23:54;;;;;;;4.53;2.33;;;24.50;83.30;;;;;;5035104;28;20417;-68
2022/08/10 08:26:22;;;;;;;3.50;3.17;;;24.60;82.20;;;;;;5054055;28;20444;-67
2022/08/10 08:28:49;;;;;;;3.30;2.60;;;24.60;81.90;;;;;;5037063;28;20577;-66
2022/08/10 08:31:17;;;;;;;1.90;1.80;;;24.80;81.10;;;;;;5054723;28;20417;-67
2022/08/10 08:33:45;;;;;;;6.30;2.37;;;24.80;80.20;;;;;;5054958;28;20949;-67
2022/08/10 08:36:14;;;;;;;5.60;2.37;;;24.90;80.50;;;;;;5054746;28;20426;-66
2022/08/10 08:38:41;;;;;;;3.20;2.30;;;25.00;80.10;;;;;;5054976;28;20401;-68
2022/08/10 08:41:34;;;;;;;3.53;2.03;;;25.10;79.70;;;;;;5053382;28;20504;-68
2022/08/10 08:44:05;;;;;;;2.57;2.37;;;25.10;78.60;;;;;;5054920;28;20397;-68
2022/08/10 08:47:08;;;;;;;6.97;3.07;;;25.10;78.70;;;;;;5053193;28;20431;-67
2022/08/10 08:49:42;;;;;;;3.53;2.20;;;25.20;78.20;;;;;;5054880;28;20910;-67
2022/08/10 08:52:08;;;;;;;4.07;2.60;;;25.20;77.50;;;;;;5053692;28;20467;-66
2022/08/10 08:55:08;;;;;;;2.53;1.80;;;25.10;77.30;;;;;;5054413;28;20441;-67
2022/08/10 08:58:15;;;;;;;4.90;2.40;;;25.30;76.20;;;;;;5054922;28;20667;-70
2022/08/10 09:01:15;;;;;;;4.03;1.93;;;25.40;76.80;;;;;;5053705;28;20536;-70
2022/08/10 09:04:12;;;;;;;2.60;1.87;;;25.50;75.00;;;;;;5054308;28;20401;-68
2022/08/10 09:07:15;;;;;;;3.30;2.03;;;25.80;74.60;;;;;;5054095;28;20528;-68
2022/08/10 09:10:03;;;;;;;3.00;1.97;;;25.90;72.70;;;;;;5054181;28;20416;-67
2022/08/10 09:12:37;;;;;;;3.60;2.07;;;25.90;72.20;;;;;;5054040;28;20459;-66
2022/08/10 09:15:40;;;;;;;2.20;2.00;;;25.90;72.20;;;;;;5053263;28;20805;-66
2022/08/10 09:18:24;;;;;;;2.47;2.20;;;26.00;71.90;;;;;;5054384;28;20400;-67
2022/08/10 09:21:25;;;;;;;2.37;1.80;;;26.20;70.90;;;;;;5054860;28;20939;-67
2022/08/10 09:24:29;;;;;;;2.73;2.07;;;26.10;70.30;;;;;;5038304;28;20421;-69
2022/08/10 09:26:59;;;;;;;3.03;2.23;;;26.20;68.20;;;;;;5053462;28;21040;-68
2022/08/10 09:29:31;;;;;;;1.80;1.70;;;26.30;65.30;;;;;;5036224;28;20418;-68
2022/08/10 09:32:10;;;;;;;3.60;2.23;;;26.10;64.90;;;;;;5053886;28;20400;-67
2022/08/10 09:35:02;;;;;;;4.07;1.83;;;26.20;64.50;;;;;;5053937;28;20436;-68
2022/08/10 09:37:50;;;;;;;4.80;1.53;;;26.30;62.80;;;;;;5053688;28;20432;-68
2022/08/10 09:41:00;;;;;;;1.80;1.70;;;26.40;62.10;;;;;;5053930;28;20749;-67
2022/08/10 09:43:29;;;;;;;1.83;1.43;;;26.60;60.40;;;;;;4953014;29;20436;-69
2022/08/10 09:46:01;;;;;;;2.93;1.80;;;26.60;60.10;;;;;;5034287;28;20437;-68
2022/08/10 09:48:49;;;;;;;2.60;1.83;;;26.80;59.80;;;;;;5053582;28;20400;-67
2022/08/10 09:51:52;;;;;;;2.40;2.20;;;26.80;59.60;;;;;;5052452;28;20425;-68
2022/08/10 09:54:34;;;;;;;3.00;2.13;;;26.90;59.40;;;;;;5053321;28;20437;-70
2022/08/10 09:57:18;;;;;;;2.70;1.60;;;27.00;59.60;;;;;;5053291;28;20428;-69
2022/08/10 10:00:14;;;;;;;1.73;1.60;;;26.90;60.00;;;;;;5053220;28;20394;-67
2022/08/10 10:03:25;;;;;;;1.90;1.80;;;26.80;60.00;;;;;;5051724;28;20425;-67
2022/08/10 10:06:11;;;;;;;2.90;1.50;;;26.90;57.40;;;;;;5040212;28;20887;-67
2022/08/10 10:08:51;;;;;;;2.83;2.00;;;26.90;54.90;;;;;;5053560;28;20390;-67
2022/08/10 10:11:38;;;;;;;1.73;1.60;;;27.10;56.00;;;;;;5052661;28;20397;-71
2022/08/10 10:14:21;;;;;;;2.13;1.73;;;27.30;56.60;;;;;;5033166;28;20785;-67
2022/08/10 10:17:16;;;;;;;1.70;1.20;;;27.40;56.50;;;;;;5033357;28;20430;-67
2022/08/10 10:20:10;;;;;;;3.30;1.70;;;27.50;57.10;;;;;;5033494;28;20379;-68
2022/08/10 10:22:40;;;;;;;2.90;2.03;;;27.50;55.60;;;;;;4994855;28;20425;-67
2022/08/10 10:25:29;;;;;;;1.87;1.73;;;27.50;55.20;;;;;;5039979;28;20806;-67
2022/08/10 10:28:24;;;;;;;3.20;2.10;;;27.50;55.50;;;;;;5053341;28;20736;-68
2022/08/10 10:31:03;;;;;;;3.33;1.70;;;27.50;54.50;;;;;;5053142;28;20454;-67
2022/08/10 10:33:43;;;;;;;2.10;1.70;;;27.60;54.90;;;;;;5051330;28;20449;-67
2022/08/10 10:36:10;;;;;;;3.20;1.90;;;27.90;55.00;;;;;;5052761;28;20520;-67
2022/08/10 10:38:40;;;;;;;3.00;1.70;;;27.70;55.50;;;;;;5056316;28;20401;-67
2022/08/10 10:41:37;;;;;;;3.83;1.90;;;28.00;56.20;;;;;;5056984;28;20398;-67
2022/08/10 10:44:05;;;;;;;5.00;2.30;;;28.10;54.40;;;;;;5057747;28;20877;-67
2022/08/10 10:46:50;;;;;;;1.63;1.53;;;27.70;54.80;;;;;;5056452;28;20424;-68
2022/08/10 10:49:42;;;;;;;2.80;2.00;;;27.80;55.50;;;;;;5056402;28;20965;-67
2022/08/10 10:52:10;;;;;;;2.37;1.70;;;28.10;55.10;;;;;;5030277;28;20540;-67
2022/08/10 10:54:35;;;;;;;2.63;2.00;;;28.10;53.90;;;;;;5053695;28;20480;-67
2022/08/10 10:57:24;;;;;;;2.50;1.70;;;27.90;55.00;;;;;;5055690;28;20483;-67
2022/08/10 11:00:03;;;;;;;1.83;1.50;;;27.90;54.10;;;;;;5057168;28;20159;-68
2022/08/10 11:02:44;;;;;;;4.70;1.80;;;28.90;53.00;;;;;;5056098;28;20921;-68
2022/08/10 11:05:30;;;;;;;2.80;1.80;;;30.20;50.40;;;;;;5056462;28;20455;-67
2022/08/10 11:08:01;;;;;;;2.00;1.80;;;31.30;49.30;;;;;;5064077;22;20485;-67
2022/08/10 11:10:33;;;;;;;3.03;1.70;;;31.40;47.40;;;;;;5035496;28;20421;-68
2022/08/10 11:13:22;;;;;;;4.73;1.90;;;32.10;45.60;;;;;;5036837;28;20382;-68
2022/08/10 11:16:15;;;;;;;1.50;1.40;;;32.40;44.60;;;;;;5036807;28;20391;-68
2022/08/10 11:19:09;;;;;;;3.67;1.53;;;32.80;44.30;;;;;;5016969;28;20391;-68
2022/08/10 11:21:53;;;;;;;7.23;2.60;;;33.10;43.50;;;;;;5016784;28;20895;-67
2022/08/10 11:24:51;;;;;;;1.80;1.60;;;34.00;41.20;;;;;;5016240;28;20450;-67
2022/08/10 11:27:19;;;;;;;2.03;1.60;;;33.50;42.60;;;;;;5016903;28;20433;-68
2022/08/10 11:29:57;;;;;;;3.77;1.60;;;33.30;42.20;;;;;;5015814;28;20397;-68
2022/08/10 11:32:24;;;;;;;1.70;1.57;;;33.40;41.20;;;;;;5015937;28;20383;-68
2022/08/10 11:35:00;;;;;;;7.53;1.83;;;32.90;41.70;;;;;;5016778;28;20450;-67
2022/08/10 11:37:56;;;;;;;1.90;1.47;;;33.60;42.40;;;;;;5016621;28;20466;-67
2022/08/10 11:40:28;;;;;;;2.33;1.70;;;33.90;41.20;;;;;;5016268;28;20925;-68
2022/08/10 11:43:07;;;;;;;3.37;1.53;;;34.60;40.30;;;;;;5016394;28;20486;-67
2022/08/10 11:45:35;;;;;;;2.17;1.70;;;34.20;41.70;;;;;;5016252;28;20387;-68
2022/08/10 11:48:10;;;;;;;3.77;1.70;;;33.10;41.20;;;;;;5016098;28;20434;-68
2022/08/10 11:50:51;;;;;;;4.60;2.13;;;33.20;41.30;;;;;;5013336;28;20421;-68
2022/08/10 11:53:33;;;;;;;2.27;1.83;;;32.60;41.80;;;;;;5016546;28;20735;-67
2022/08/10 11:56:00;;;;;;;2.37;1.50;;;34.10;40.30;;;;;;4998633;28;20411;-67
2022/08/10 12:01:23;;;;;;;2.20;1.60;;;34.00;39.70;;;;;;5015797;28;20438;-68
2022/08/10 12:03:49;;;;;;;3.43;1.70;;;35.30;37.80;;;;;;5016443;28;20474;-67
2022/08/10 12:06:18;;;;;;;1.93;1.50;;;34.60;39.90;;;;;;5015683;28;20454;-67
2022/08/10 12:08:47;;;;;;;2.13;1.33;;;34.20;39.30;;;;;;5016069;28;20399;-67
2022/08/10 12:11:21;;;;;;;2.27;1.47;;;34.20;39.20;;;;;;5015866;28;20429;-66
2022/08/10 12:14:08;;;;;;;2.70;1.47;;;34.60;38.70;;;;;;5015987;28;20434;-68
2022/08/10 12:16:38;;;;;;;1.30;1.20;;;34.70;39.00;;;;;;5015339;28;20423;-67
2022/08/10 12:19:40;;;;;;;2.10;1.67;;;35.50;37.80;;;;;;5015822;28;20473;-68
2022/08/10 12:22:11;;;;;;;1.40;1.30;;;35.90;36.10;;;;;;4949064;28;20414;-67
2022/08/10 12:24:41;;;;;;;2.30;1.47;;;35.70;36.80;;;;;;5015572;28;20482;-67
2022/08/10 12:27:11;;;;;;;2.83;1.40;;;35.40;37.00;;;;;;5015175;28;20481;-67
2022/08/10 12:29:44;;;;;;;3.13;1.57;;;35.40;37.60;;;;;;5015431;28;20465;-68
2022/08/10 12:32:16;;;;;;;1.47;1.33;;;35.60;37.60;;;;;;5014117;28;20438;-68
2022/08/10 12:35:06;;;;;;;1.80;1.53;;;35.20;36.80;;;;;;5015796;28;20434;-69
2022/08/10 12:37:44;;;;;;;3.53;1.47;;;35.40;36.80;;;;;;5015154;28;20454;-68
2022/08/10 12:40:14;;;;;;;5.37;1.60;;;35.30;37.50;;;;;;5015869;28;20375;-67
2022/08/10 12:42:54;;;;;;;1.50;1.40;;;36.30;35.80;;;;;;5015521;28;20415;-67
2022/08/10 12:45:33;;;;;;;3.77;1.67;;;36.60;35.70;;;;;;5014109;28;20469;-68
2022/08/10 12:48:07;;;;;;;1.97;1.60;;;36.00;35.70;;;;;;5015325;28;20426;-67
2022/08/10 12:50:45;;;;;;;5.13;1.63;;;36.60;35.10;;;;;;5015485;28;20437;-66
2022/08/10 12:53:25;;;;;;;1.33;1.23;;;36.80;34.70;;;;;;5015676;28;20423;-69
2022/08/10 12:55:51;;;;;;;1.90;1.50;;;36.40;35.10;;;;;;5014953;28;20483;-68
2022/08/10 12:58:19;;;;;;;2.37;1.60;;;36.00;36.20;;;;;;5014586;28;20438;-67
2022/08/10 13:00:48;;;;;;;3.97;1.60;;;36.20;36.00;;;;;;5014346;28;20411;-67
2022/08/10 13:03:15;;;;;;;1.50;1.40;;;35.90;35.90;;;;;;5014877;28;20410;-67
2022/08/10 13:05:41;;;;;;;3.87;1.43;;;37.10;35.10;;;;;;5015325;28;20410;-69
2022/08/10 13:10:59;;;;;;;2.73;1.30;;;35.80;35.70;;;;;;5015062;28;20437;-67
2022/08/10 13:13:34;;;;;;;2.03;1.70;;;34.80;35.90;;;;;;5014571;28;20488;-69
2022/08/10 13:16:01;;;;;;;2.50;1.50;;;33.80;37.40;;;;;;5014242;28;20404;-68
2022/08/10 13:18:32;;;;;;;2.30;1.60;;;33.60;37.80;;;;;;5015042;28;20407;-68
2022/08/10 13:21:04;;;;;;;2.80;1.47;;;33.40;38.40;;;;;;5014689;28;20791;-68